Pagina principale
METAR-TAF:

METAR-TAF

Aeroporti :

Aeroporto di Brindisi-Casale

Brindisi, Italia

latitudine: 40-39N, longitudine: 017-57E, altezza: 15 m

Osservazione

Il bollettino è stato emesso 17 minuti fa, alle 19:20 UTC
Vento 12 kt da nord/nord-ovest
Temperature 22°C
Umidità 46%
Pressione 1015 hPa
Visibilità 10 km o più
nessuna nube inferiore a 1500 m e nessun cumulonembo

METAR: LIBR 231920Z 34012KT CAVOK 22/10 Q1015

Ora: 21:37 (19:37 UTC)

Previsione

Il bollettino è stato emesso 2 ore e 37 minuti fa, alle 17:00 UTC
Previsione valida dal 23 alle 18 UTC al 24 alle 18 UTC
Vento 12 kt da nord/nord-ovest
Visibilità 10 km o più
Nubi sparse ad un'altezza di 4000 ft
Evoluzione graduale
dal 23 alle 19 UTC al 23 alle 21 UTC
Vento 5 kt da direzioni variabili
Evoluzione graduale
dal 24 alle 07 UTC al 24 alle 09 UTC
Vento 13 kt da nord

TAF: LIBR 231700Z 2318/2418 33012KT 9999 SCT040 BECMG 2319/2321 VRB05KT BECMG 2407/2409 35013KT

Osservazioni e previsioni meteorologiche di più di 4000 aeroporti (messaggi METAR e TAF).

Le stazioni disponibili sono rappresentate dai dischi gialli e rossi sulla carta.

Puntare il mouse per vedere il nome della stazione.

Clicca sopra per visualizzare le osservazioni e previsioni meteorologiche.

Per cambiare la mappa : fare clic sui pulsanti verdi con una croce nera per ingrandire, il pulsante verde con un trattino per diminuire, o sulla freccia verde per le mappe adiacenti.


METAR-TAF: